Alkabo, North Dakota
Current Conditions -  °F | °C
As of 1:28 AM on Saturday 29 Nov 2014 (Local Time) from KISN Reporting Station
Overcast Overcast  
Wind Chill: -12°   Ceiling: 1100
Heat Index: -6°   Visibility: 10mi
Dew Point: -8°   Wind: 13mph
Humidity: 82%   Direction: 340°NNW
Pressure: 29.45"   Gusts: NA
Location:  48.5901°N, 103.922°W
Report Text: KISN 290728Z AUTO 34011KT 10SM BKN011 OVC021 M06/M08 A2945 RMK AO2 T10561083
Loading
Personal Weather Stations






























Interactive Weather Map New forecast layout! Learn more

10-Day Weather Forecast

Advertisements
Track Severe Weather on mobile